sensor_id;sensor_type;location;lat;lon;timestamp;temperature;humidity
23738;DHT22;12049;51.068;3.688;2022-09-01T00:00:39;22.50;99.90
23738;DHT22;12049;51.068;3.688;2022-09-01T00:03:07;22.40;99.90
23738;DHT22;12049;51.068;3.688;2022-09-01T00:05:35;22.40;99.90
23738;DHT22;12049;51.068;3.688;2022-09-01T00:08:01;22.40;99.90
23738;DHT22;12049;51.068;3.688;2022-09-01T00:10:27;22.30;99.90
23738;DHT22;12049;51.068;3.688;2022-09-01T00:12:53;22.20;99.90
23738;DHT22;12049;51.068;3.688;2022-09-01T00:15:18;22.20;99.90
23738;DHT22;12049;51.068;3.688;2022-09-01T00:17:44;22.20;99.90
23738;DHT22;12049;51.068;3.688;2022-09-01T00:20:10;22.10;99.90
23738;DHT22;12049;51.068;3.688;2022-09-01T00:22:35;22.10;99.90
23738;DHT22;12049;51.068;3.688;2022-09-01T00:25:01;22.10;99.90
23738;DHT22;12049;51.068;3.688;2022-09-01T00:27:26;22.10;99.90
23738;DHT22;12049;51.068;3.688;2022-09-01T00:29:52;22.00;99.90
23738;DHT22;12049;51.068;3.688;2022-09-01T00:32:17;22.00;99.90
23738;DHT22;12049;51.068;3.688;2022-09-01T00:34:44;21.90;99.90
23738;DHT22;12049;51.068;3.688;2022-09-01T00:37:09;21.80;99.90
23738;DHT22;12049;51.068;3.688;2022-09-01T00:39:35;21.80;99.90
23738;DHT22;12049;51.068;3.688;2022-09-01T00:42:00;21.80;99.90
23738;DHT22;12049;51.068;3.688;2022-09-01T00:44:26;21.80;99.90
23738;DHT22;12049;51.068;3.688;2022-09-01T00:46:53;21.80;99.90
23738;DHT22;12049;51.068;3.688;2022-09-01T00:49:38;21.70;99.90
23738;DHT22;12049;51.068;3.688;2022-09-01T00:52:07;21.70;99.90
23738;DHT22;12049;51.068;3.688;2022-09-01T00:54:35;21.80;99.90
23738;DHT22;12049;51.068;3.688;2022-09-01T00:57:01;21.70;99.90
23738;DHT22;12049;51.068;3.688;2022-09-01T00:59:28;21.70;99.90
23738;DHT22;12049;51.068;3.688;2022-09-01T01:01:54;21.70;99.90
23738;DHT22;12049;51.068;3.688;2022-09-01T01:04:20;21.70;99.90
23738;DHT22;12049;51.068;3.688;2022-09-01T01:06:48;21.70;99.90
23738;DHT22;12049;51.068;3.688;2022-09-01T01:09:18;21.70;99.90
23738;DHT22;12049;51.068;3.688;2022-09-01T01:11:46;21.70;99.90
23738;DHT22;12049;51.068;3.688;2022-09-01T01:14:12;21.60;99.90
23738;DHT22;12049;51.068;3.688;2022-09-01T01:16:40;21.60;99.90
23738;DHT22;12049;51.068;3.688;2022-09-01T01:19:15;21.60;99.90
23738;DHT22;12049;51.068;3.688;2022-09-01T01:22:02;21.60;99.90
23738;DHT22;12049;51.068;3.688;2022-09-01T01:24:47;21.60;99.90
23738;DHT22;12049;51.068;3.688;2022-09-01T01:27:12;21.60;99.70
23738;DHT22;12049;51.068;3.688;2022-09-01T01:29:38;21.50;99.60
23738;DHT22;12049;51.068;3.688;2022-09-01T01:32:04;21.50;99.60
23738;DHT22;12049;51.068;3.688;2022-09-01T01:34:37;21.40;99.60
23738;DHT22;12049;51.068;3.688;2022-09-01T01:37:04;21.50;99.60
23738;DHT22;12049;51.068;3.688;2022-09-01T01:39:30;21.50;99.70
23738;DHT22;12049;51.068;3.688;2022-09-01T01:41:57;21.40;99.50
23738;DHT22;12049;51.068;3.688;2022-09-01T01:44:23;21.40;99.20
23738;DHT22;12049;51.068;3.688;2022-09-01T01:46:52;21.40;99.30
23738;DHT22;12049;51.068;3.688;2022-09-01T01:49:20;21.30;99.30
23738;DHT22;12049;51.068;3.688;2022-09-01T01:51:46;21.40;99.10
23738;DHT22;12049;51.068;3.688;2022-09-01T01:54:13;21.30;98.90
23738;DHT22;12049;51.068;3.688;2022-09-01T01:56:38;21.30;98.90
23738;DHT22;12049;51.068;3.688;2022-09-01T01:59:07;21.30;98.90
23738;DHT22;12049;51.068;3.688;2022-09-01T02:01:38;21.30;99.00
23738;DHT22;12049;51.068;3.688;2022-09-01T02:04:03;21.30;98.90
23738;DHT22;12049;51.068;3.688;2022-09-01T02:06:31;21.30;99.00
23738;DHT22;12049;51.068;3.688;2022-09-01T02:08:57;21.30;99.10
23738;DHT22;12049;51.068;3.688;2022-09-01T02:11:24;21.20;98.80
23738;DHT22;12049;51.068;3.688;2022-09-01T02:13:51;21.20;98.70
23738;DHT22;12049;51.068;3.688;2022-09-01T02:16:25;21.20;98.90
23738;DHT22;12049;51.068;3.688;2022-09-01T02:18:51;21.20;98.90
23738;DHT22;12049;51.068;3.688;2022-09-01T02:21:18;21.10;98.80
23738;DHT22;12049;51.068;3.688;2022-09-01T02:23:48;21.10;98.90
23738;DHT22;12049;51.068;3.688;2022-09-01T02:26:15;21.10;98.70
23738;DHT22;12049;51.068;3.688;2022-09-01T02:28:44;21.10;99.00
23738;DHT22;12049;51.068;3.688;2022-09-01T02:31:11;21.10;99.00
23738;DHT22;12049;51.068;3.688;2022-09-01T02:33:37;21.10;98.90
23738;DHT22;12049;51.068;3.688;2022-09-01T02:36:05;21.00;99.00
23738;DHT22;12049;51.068;3.688;2022-09-01T02:38:32;21.00;98.80
23738;DHT22;12049;51.068;3.688;2022-09-01T02:40:58;21.00;98.60
23738;DHT22;12049;51.068;3.688;2022-09-01T02:43:25;20.90;98.80
23738;DHT22;12049;51.068;3.688;2022-09-01T02:45:53;20.90;99.00
23738;DHT22;12049;51.068;3.688;2022-09-01T02:48:21;21.00;99.00
23738;DHT22;12049;51.068;3.688;2022-09-01T02:50:50;20.90;98.80
23738;DHT22;12049;51.068;3.688;2022-09-01T02:53:15;20.90;99.10
23738;DHT22;12049;51.068;3.688;2022-09-01T02:55:41;21.00;98.90
23738;DHT22;12049;51.068;3.688;2022-09-01T02:58:07;21.00;99.00
23738;DHT22;12049;51.068;3.688;2022-09-01T03:00:43;21.00;98.80
23738;DHT22;12049;51.068;3.688;2022-09-01T03:03:09;20.90;99.00
23738;DHT22;12049;51.068;3.688;2022-09-01T03:05:37;21.00;99.10
23738;DHT22;12049;51.068;3.688;2022-09-01T03:08:04;21.00;99.10
23738;DHT22;12049;51.068;3.688;2022-09-01T03:10:38;20.90;98.90
23738;DHT22;12049;51.068;3.688;2022-09-01T03:13:07;20.90;98.90
23738;DHT22;12049;51.068;3.688;2022-09-01T03:15:33;20.90;99.20
23738;DHT22;12049;51.068;3.688;2022-09-01T03:17:59;20.90;99.20
23738;DHT22;12049;51.068;3.688;2022-09-01T03:20:26;20.90;99.20
23738;DHT22;12049;51.068;3.688;2022-09-01T03:22:52;21.00;99.10
23738;DHT22;12049;51.068;3.688;2022-09-01T03:25:18;21.00;99.20
23738;DHT22;12049;51.068;3.688;2022-09-01T03:27:46;20.90;99.30
23738;DHT22;12049;51.068;3.688;2022-09-01T03:30:12;20.90;99.30
23738;DHT22;12049;51.068;3.688;2022-09-01T03:32:38;20.90;99.40
23738;DHT22;12049;51.068;3.688;2022-09-01T03:35:04;20.80;99.40
23738;DHT22;12049;51.068;3.688;2022-09-01T03:37:30;20.80;99.40
23738;DHT22;12049;51.068;3.688;2022-09-01T03:39:56;20.80;99.40
23738;DHT22;12049;51.068;3.688;2022-09-01T03:42:23;20.80;99.40
23738;DHT22;12049;51.068;3.688;2022-09-01T03:44:50;20.70;99.70
23738;DHT22;12049;51.068;3.688;2022-09-01T03:47:17;20.70;99.80
23738;DHT22;12049;51.068;3.688;2022-09-01T03:49:45;20.70;99.70
23738;DHT22;12049;51.068;3.688;2022-09-01T03:52:15;20.70;99.70
23738;DHT22;12049;51.068;3.688;2022-09-01T03:54:41;20.60;99.90
23738;DHT22;12049;51.068;3.688;2022-09-01T03:57:08;20.60;99.90
23738;DHT22;12049;51.068;3.688;2022-09-01T03:59:34;20.50;99.90
23738;DHT22;12049;51.068;3.688;2022-09-01T04:02:00;20.40;99.90
23738;DHT22;12049;51.068;3.688;2022-09-01T04:04:27;20.40;99.90
23738;DHT22;12049;51.068;3.688;2022-09-01T04:06:55;20.40;99.90
23738;DHT22;12049;51.068;3.688;2022-09-01T04:09:21;20.40;99.90
23738;DHT22;12049;51.068;3.688;2022-09-01T04:11:46;20.30;99.90
23738;DHT22;12049;51.068;3.688;2022-09-01T04:14:12;20.20;99.90
23738;DHT22;12049;51.068;3.688;2022-09-01T04:16:38;20.20;99.90
23738;DHT22;12049;51.068;3.688;2022-09-01T04:19:24;20.20;99.90
23738;DHT22;12049;51.068;3.688;2022-09-01T04:21:51;20.10;99.90
23738;DHT22;12049;51.068;3.688;2022-09-01T04:24:21;20.10;99.90
23738;DHT22;12049;51.068;3.688;2022-09-01T04:26:48;20.10;99.90
23738;DHT22;12049;51.068;3.688;2022-09-01T04:29:15;20.10;99.90
23738;DHT22;12049;51.068;3.688;2022-09-01T04:31:42;20.10;99.90
23738;DHT22;12049;51.068;3.688;2022-09-01T04:34:08;20.10;99.90
23738;DHT22;12049;51.068;3.688;2022-09-01T04:36:41;20.00;99.90
23738;DHT22;12049;51.068;3.688;2022-09-01T04:39:08;20.00;99.90
23738;DHT22;12049;51.068;3.688;2022-09-01T04:41:35;19.90;99.90
23738;DHT22;12049;51.068;3.688;2022-09-01T04:44:01;19.90;99.90
23738;DHT22;12049;51.068;3.688;2022-09-01T04:46:29;19.90;99.90
23738;DHT22;12049;51.068;3.688;2022-09-01T04:48:57;19.80;99.90
23738;DHT22;12049;51.068;3.688;2022-09-01T04:51:24;19.80;99.90
23738;DHT22;12049;51.068;3.688;2022-09-01T04:53:55;19.80;99.90
23738;DHT22;12049;51.068;3.688;2022-09-01T04:56:21;19.70;99.90
23738;DHT22;12049;51.068;3.688;2022-09-01T04:58:49;19.70;99.90
23738;DHT22;12049;51.068;3.688;2022-09-01T05:01:19;19.70;99.90
23738;DHT22;12049;51.068;3.688;2022-09-01T05:03:45;19.60;99.90
23738;DHT22;12049;51.068;3.688;2022-09-01T05:06:16;19.60;99.90
23738;DHT22;12049;51.068;3.688;2022-09-01T05:08:42;19.70;99.90
23738;DHT22;12049;51.068;3.688;2022-09-01T05:11:10;19.60;99.90
23738;DHT22;12049;51.068;3.688;2022-09-01T05:13:35;19.70;99.90
23738;DHT22;12049;51.068;3.688;2022-09-01T05:16:07;19.50;99.90
23738;DHT22;12049;51.068;3.688;2022-09-01T05:18:37;19.50;99.90
23738;DHT22;12049;51.068;3.688;2022-09-01T05:21:04;19.50;99.90
23738;DHT22;12049;51.068;3.688;2022-09-01T05:23:34;19.50;99.90
23738;DHT22;12049;51.068;3.688;2022-09-01T05:26:00;19.50;99.90
23738;DHT22;12049;51.068;3.688;2022-09-01T05:28:39;19.40;99.90
23738;DHT22;12049;51.068;3.688;2022-09-01T05:31:05;19.50;99.90
23738;DHT22;12049;51.068;3.688;2022-09-01T05:33:31;19.40;99.90
23738;DHT22;12049;51.068;3.688;2022-09-01T05:35:59;19.40;99.90
23738;DHT22;12049;51.068;3.688;2022-09-01T05:38:25;19.40;99.90
23738;DHT22;12049;51.068;3.688;2022-09-01T05:40:54;19.40;99.90
23738;DHT22;12049;51.068;3.688;2022-09-01T05:43:20;19.40;99.90
23738;DHT22;12049;51.068;3.688;2022-09-01T05:45:45;19.40;99.90
23738;DHT22;12049;51.068;3.688;2022-09-01T05:48:11;19.40;99.90
23738;DHT22;12049;51.068;3.688;2022-09-01T05:50:40;19.40;99.90
23738;DHT22;12049;51.068;3.688;2022-09-01T05:53:08;19.40;99.90
23738;DHT22;12049;51.068;3.688;2022-09-01T05:55:40;19.40;99.90
23738;DHT22;12049;51.068;3.688;2022-09-01T05:58:08;19.40;99.90
23738;DHT22;12049;51.068;3.688;2022-09-01T06:00:38;19.40;99.90
23738;DHT22;12049;51.068;3.688;2022-09-01T06:03:04;19.50;99.90
23738;DHT22;12049;51.068;3.688;2022-09-01T06:05:33;19.50;99.90
23738;DHT22;12049;51.068;3.688;2022-09-01T06:08:01;19.50;99.90
23738;DHT22;12049;51.068;3.688;2022-09-01T06:10:27;19.50;99.90
23738;DHT22;12049;51.068;3.688;2022-09-01T06:12:54;19.50;99.90
23738;DHT22;12049;51.068;3.688;2022-09-01T06:15:20;19.60;99.90
23738;DHT22;12049;51.068;3.688;2022-09-01T06:17:47;19.70;99.90
23738;DHT22;12049;51.068;3.688;2022-09-01T06:20:13;19.70;99.90
23738;DHT22;12049;51.068;3.688;2022-09-01T06:22:42;19.70;99.90
23738;DHT22;12049;51.068;3.688;2022-09-01T06:25:09;19.60;99.90
23738;DHT22;12049;51.068;3.688;2022-09-01T06:27:34;19.70;99.90
23738;DHT22;12049;51.068;3.688;2022-09-01T06:30:06;19.80;99.90
23738;DHT22;12049;51.068;3.688;2022-09-01T06:32:40;19.80;99.90
23738;DHT22;12049;51.068;3.688;2022-09-01T06:35:12;19.90;99.90
23738;DHT22;12049;51.068;3.688;2022-09-01T06:37:40;19.90;99.90
23738;DHT22;12049;51.068;3.688;2022-09-01T06:40:07;19.90;99.90
23738;DHT22;12049;51.068;3.688;2022-09-01T06:42:50;20.20;99.90
23738;DHT22;12049;51.068;3.688;2022-09-01T06:45:18;20.20;99.90
23738;DHT22;12049;51.068;3.688;2022-09-01T06:47:45;20.20;99.90
23738;DHT22;12049;51.068;3.688;2022-09-01T06:50:14;20.30;99.90
23738;DHT22;12049;51.068;3.688;2022-09-01T06:52:44;20.30;99.90
23738;DHT22;12049;51.068;3.688;2022-09-01T06:55:10;20.30;99.90
23738;DHT22;12049;51.068;3.688;2022-09-01T06:57:36;20.40;99.90
23738;DHT22;12049;51.068;3.688;2022-09-01T07:00:06;20.40;99.90
23738;DHT22;12049;51.068;3.688;2022-09-01T07:02:32;20.50;99.90
23738;DHT22;12049;51.068;3.688;2022-09-01T07:04:58;20.60;99.90
23738;DHT22;12049;51.068;3.688;2022-09-01T07:07:23;20.80;99.90
23738;DHT22;12049;51.068;3.688;2022-09-01T07:09:52;20.90;99.90
23738;DHT22;12049;51.068;3.688;2022-09-01T07:12:17;20.90;99.90
23738;DHT22;12049;51.068;3.688;2022-09-01T07:14:45;21.10;99.90
23738;DHT22;12049;51.068;3.688;2022-09-01T07:17:13;21.00;99.90
23738;DHT22;12049;51.068;3.688;2022-09-01T07:19:39;21.20;99.90
23738;DHT22;12049;51.068;3.688;2022-09-01T07:22:05;21.40;99.90
23738;DHT22;12049;51.068;3.688;2022-09-01T07:24:30;21.50;99.90
23738;DHT22;12049;51.068;3.688;2022-09-01T07:26:58;21.40;99.90
23738;DHT22;12049;51.068;3.688;2022-09-01T07:29:24;21.30;99.90
23738;DHT22;12049;51.068;3.688;2022-09-01T07:31:50;21.40;99.90
23738;DHT22;12049;51.068;3.688;2022-09-01T07:34:17;21.60;99.90
23738;DHT22;12049;51.068;3.688;2022-09-01T07:36:43;22.10;99.90
23738;DHT22;12049;51.068;3.688;2022-09-01T07:39:09;23.40;99.90
23738;DHT22;12049;51.068;3.688;2022-09-01T07:41:34;25.00;99.90
23738;DHT22;12049;51.068;3.688;2022-09-01T07:44:01;26.90;98.30
23738;DHT22;12049;51.068;3.688;2022-09-01T07:46:28;28.30;96.30
23738;DHT22;12049;51.068;3.688;2022-09-01T07:48:56;29.50;94.10
23738;DHT22;12049;51.068;3.688;2022-09-01T07:51:23;30.30;93.10
23738;DHT22;12049;51.068;3.688;2022-09-01T07:53:50;31.10;93.30
23738;DHT22;12049;51.068;3.688;2022-09-01T07:56:17;31.80;91.00
23738;DHT22;12049;51.068;3.688;2022-09-01T07:58:44;32.00;90.70
23738;DHT22;12049;51.068;3.688;2022-09-01T08:01:12;32.60;90.50
23738;DHT22;12049;51.068;3.688;2022-09-01T08:03:38;33.20;90.00
23738;DHT22;12049;51.068;3.688;2022-09-01T08:06:08;33.90;88.80
23738;DHT22;12049;51.068;3.688;2022-09-01T08:08:34;34.20;86.70
23738;DHT22;12049;51.068;3.688;2022-09-01T08:11:00;34.50;86.50
23738;DHT22;12049;51.068;3.688;2022-09-01T08:13:26;35.20;86.30
23738;DHT22;12049;51.068;3.688;2022-09-01T08:15:52;35.40;84.60
23738;DHT22;12049;51.068;3.688;2022-09-01T08:18:18;35.70;82.80
23738;DHT22;12049;51.068;3.688;2022-09-01T08:20:44;36.10;82.50
23738;DHT22;12049;51.068;3.688;2022-09-01T08:23:15;36.20;81.80
23738;DHT22;12049;51.068;3.688;2022-09-01T08:25:42;36.10;81.30
23738;DHT22;12049;51.068;3.688;2022-09-01T08:28:08;36.30;81.10
23738;DHT22;12049;51.068;3.688;2022-09-01T08:30:34;36.60;81.00
23738;DHT22;12049;51.068;3.688;2022-09-01T08:33:00;36.70;81.40
23738;DHT22;12049;51.068;3.688;2022-09-01T08:35:26;36.80;81.30
23738;DHT22;12049;51.068;3.688;2022-09-01T08:37:54;36.70;79.50
23738;DHT22;12049;51.068;3.688;2022-09-01T08:40:19;36.90;79.90
23738;DHT22;12049;51.068;3.688;2022-09-01T08:42:57;37.00;79.30
23738;DHT22;12049;51.068;3.688;2022-09-01T08:46:01;37.00;78.70
23738;DHT22;12049;51.068;3.688;2022-09-01T08:51:21;37.30;79.40
23738;DHT22;12049;51.068;3.688;2022-09-01T08:53:53;37.40;77.50
23738;DHT22;12049;51.068;3.688;2022-09-01T08:56:21;37.80;77.80
23738;DHT22;12049;51.068;3.688;2022-09-01T08:58:46;37.90;77.00
23738;DHT22;12049;51.068;3.688;2022-09-01T09:01:17;37.80;76.90
23738;DHT22;12049;51.068;3.688;2022-09-01T09:04:08;38.00;77.30
23738;DHT22;12049;51.068;3.688;2022-09-01T09:06:51;37.90;76.90
23738;DHT22;12049;51.068;3.688;2022-09-01T09:09:19;37.70;76.00
23738;DHT22;12049;51.068;3.688;2022-09-01T09:14:14;37.50;76.20
23738;DHT22;12049;51.068;3.688;2022-09-01T09:16:44;37.30;75.90
23738;DHT22;12049;51.068;3.688;2022-09-01T09:19:26;37.00;77.60
23738;DHT22;12049;51.068;3.688;2022-09-01T09:21:53;37.00;78.90
23738;DHT22;12049;51.068;3.688;2022-09-01T09:24:30;37.10;77.50
23738;DHT22;12049;51.068;3.688;2022-09-01T09:27:27;36.80;78.40
23738;DHT22;12049;51.068;3.688;2022-09-01T09:29:54;36.80;78.30
23738;DHT22;12049;51.068;3.688;2022-09-01T09:32:21;37.00;77.60
23738;DHT22;12049;51.068;3.688;2022-09-01T09:34:47;37.10;80.30
23738;DHT22;12049;51.068;3.688;2022-09-01T09:37:26;37.30;78.20
23738;DHT22;12049;51.068;3.688;2022-09-01T09:42:40;37.70;78.90
23738;DHT22;12049;51.068;3.688;2022-09-01T09:45:23;37.70;76.80
23738;DHT22;12049;51.068;3.688;2022-09-01T09:47:49;37.90;78.20
23738;DHT22;12049;51.068;3.688;2022-09-01T09:53:10;38.00;77.80
23738;DHT22;12049;51.068;3.688;2022-09-01T09:55:36;38.30;78.20
23738;DHT22;12049;51.068;3.688;2022-09-01T09:58:14;38.40;77.30
23738;DHT22;12049;51.068;3.688;2022-09-01T10:00:40;38.40;75.00
23738;DHT22;12049;51.068;3.688;2022-09-01T10:03:30;38.60;74.60
23738;DHT22;12049;51.068;3.688;2022-09-01T10:05:58;38.50;74.90
23738;DHT22;12049;51.068;3.688;2022-09-01T10:10:52;38.70;73.80
23738;DHT22;12049;51.068;3.688;2022-09-01T10:13:19;38.40;75.00
23738;DHT22;12049;51.068;3.688;2022-09-01T10:15:55;38.20;74.80
23738;DHT22;12049;51.068;3.688;2022-09-01T10:18:22;38.10;74.50
23738;DHT22;12049;51.068;3.688;2022-09-01T10:20:53;38.00;75.60
23738;DHT22;12049;51.068;3.688;2022-09-01T10:23:20;38.00;74.10
23738;DHT22;12049;51.068;3.688;2022-09-01T10:25:46;38.20;75.30
23738;DHT22;12049;51.068;3.688;2022-09-01T10:28:15;38.30;73.00
23738;DHT22;12049;51.068;3.688;2022-09-01T10:30:43;38.00;71.90
23738;DHT22;12049;51.068;3.688;2022-09-01T10:33:10;37.90;73.50
23738;DHT22;12049;51.068;3.688;2022-09-01T10:35:38;37.90;72.30
23738;DHT22;12049;51.068;3.688;2022-09-01T10:38:06;37.90;72.90
23738;DHT22;12049;51.068;3.688;2022-09-01T10:40:34;37.80;76.60
23738;DHT22;12049;51.068;3.688;2022-09-01T10:45:46;37.70;71.30
23738;DHT22;12049;51.068;3.688;2022-09-01T10:50:51;37.10;72.80
23738;DHT22;12049;51.068;3.688;2022-09-01T10:56:02;36.40;74.80
23738;DHT22;12049;51.068;3.688;2022-09-01T10:58:34;36.30;75.40
23738;DHT22;12049;51.068;3.688;2022-09-01T11:01:03;36.30;74.20
23738;DHT22;12049;51.068;3.688;2022-09-01T11:03:32;36.10;74.50
23738;DHT22;12049;51.068;3.688;2022-09-01T11:06:00;36.10;72.90
23738;DHT22;12049;51.068;3.688;2022-09-01T11:13:35;36.10;74.60
23738;DHT22;12049;51.068;3.688;2022-09-01T11:18:44;36.30;78.10
23738;DHT22;12049;51.068;3.688;2022-09-01T11:21:29;36.30;72.40
23738;DHT22;12049;51.068;3.688;2022-09-01T11:27:01;35.70;74.00
23738;DHT22;12049;51.068;3.688;2022-09-01T11:32:13;35.60;75.90
23738;DHT22;12049;51.068;3.688;2022-09-01T11:34:40;35.60;76.90
23738;DHT22;12049;51.068;3.688;2022-09-01T11:37:10;35.50;76.40
23738;DHT22;12049;51.068;3.688;2022-09-01T11:39:41;35.40;77.00
23738;DHT22;12049;51.068;3.688;2022-09-01T11:44:51;35.40;77.70
23738;DHT22;12049;51.068;3.688;2022-09-01T11:47:24;35.20;75.80
23738;DHT22;12049;51.068;3.688;2022-09-01T11:50:01;35.30;77.20
23738;DHT22;12049;51.068;3.688;2022-09-01T11:52:31;35.00;75.70
23738;DHT22;12049;51.068;3.688;2022-09-01T11:54:59;34.90;78.50
23738;DHT22;12049;51.068;3.688;2022-09-01T11:57:26;34.60;79.70
23738;DHT22;12049;51.068;3.688;2022-09-01T11:59:53;34.50;76.60
23738;DHT22;12049;51.068;3.688;2022-09-01T12:02:20;34.40;79.20
23738;DHT22;12049;51.068;3.688;2022-09-01T12:04:47;34.30;75.40
23738;DHT22;12049;51.068;3.688;2022-09-01T12:07:24;34.20;81.40
23738;DHT22;12049;51.068;3.688;2022-09-01T12:09:50;34.20;78.00
23738;DHT22;12049;51.068;3.688;2022-09-01T12:14:54;33.90;80.40
23738;DHT22;12049;51.068;3.688;2022-09-01T12:17:20;33.80;79.50
23738;DHT22;12049;51.068;3.688;2022-09-01T12:19:45;33.80;77.70
23738;DHT22;12049;51.068;3.688;2022-09-01T12:22:16;33.60;78.60
23738;DHT22;12049;51.068;3.688;2022-09-01T12:24:43;33.50;78.20
23738;DHT22;12049;51.068;3.688;2022-09-01T12:27:09;33.40;79.00
23738;DHT22;12049;51.068;3.688;2022-09-01T12:29:35;33.10;78.00
23738;DHT22;12049;51.068;3.688;2022-09-01T12:32:01;33.10;81.00
23738;DHT22;12049;51.068;3.688;2022-09-01T12:39:31;32.90;81.00
23738;DHT22;12049;51.068;3.688;2022-09-01T12:44:42;32.70;75.20
23738;DHT22;12049;51.068;3.688;2022-09-01T12:47:09;32.40;79.20
23738;DHT22;12049;51.068;3.688;2022-09-01T12:49:37;32.40;79.30
23738;DHT22;12049;51.068;3.688;2022-09-01T12:52:16;32.00;75.40
23738;DHT22;12049;51.068;3.688;2022-09-01T12:54:51;32.00;82.20
23738;DHT22;12049;51.068;3.688;2022-09-01T12:57:30;32.20;79.60
23738;DHT22;12049;51.068;3.688;2022-09-01T13:00:17;32.50;78.20
23738;DHT22;12049;51.068;3.688;2022-09-01T13:07:44;31.90;79.70
23738;DHT22;12049;51.068;3.688;2022-09-01T13:10:09;31.60;78.40
23738;DHT22;12049;51.068;3.688;2022-09-01T13:12:38;31.20;80.10
23738;DHT22;12049;51.068;3.688;2022-09-01T13:15:05;30.70;81.60
23738;DHT22;12049;51.068;3.688;2022-09-01T13:17:31;30.40;82.80
23738;DHT22;12049;51.068;3.688;2022-09-01T13:19:56;30.10;80.90
23738;DHT22;12049;51.068;3.688;2022-09-01T13:22:22;30.30;82.10
23738;DHT22;12049;51.068;3.688;2022-09-01T13:24:47;30.30;82.90
23738;DHT22;12049;51.068;3.688;2022-09-01T13:27:13;30.20;82.10
23738;DHT22;12049;51.068;3.688;2022-09-01T13:29:39;30.40;81.60
23738;DHT22;12049;51.068;3.688;2022-09-01T13:32:06;30.30;81.50
23738;DHT22;12049;51.068;3.688;2022-09-01T13:34:33;30.30;80.30
23738;DHT22;12049;51.068;3.688;2022-09-01T13:36:59;30.10;83.50
23738;DHT22;12049;51.068;3.688;2022-09-01T13:39:24;29.90;81.80
23738;DHT22;12049;51.068;3.688;2022-09-01T13:41:50;29.80;81.50
23738;DHT22;12049;51.068;3.688;2022-09-01T13:44:16;29.70;82.60
23738;DHT22;12049;51.068;3.688;2022-09-01T13:46:42;29.40;83.70
23738;DHT22;12049;51.068;3.688;2022-09-01T13:49:08;29.30;83.80
23738;DHT22;12049;51.068;3.688;2022-09-01T13:51:34;29.20;84.20
23738;DHT22;12049;51.068;3.688;2022-09-01T13:54:00;29.10;82.90
23738;DHT22;12049;51.068;3.688;2022-09-01T13:56:26;29.10;82.50
23738;DHT22;12049;51.068;3.688;2022-09-01T13:58:52;29.10;84.00
23738;DHT22;12049;51.068;3.688;2022-09-01T14:01:17;29.10;86.30
23738;DHT22;12049;51.068;3.688;2022-09-01T14:03:43;29.40;84.20
23738;DHT22;12049;51.068;3.688;2022-09-01T14:06:08;29.20;81.70
23738;DHT22;12049;51.068;3.688;2022-09-01T14:08:34;29.10;83.70
23738;DHT22;12049;51.068;3.688;2022-09-01T14:11:00;29.00;85.70
23738;DHT22;12049;51.068;3.688;2022-09-01T14:13:27;29.00;83.10
23738;DHT22;12049;51.068;3.688;2022-09-01T14:15:52;28.80;83.90
23738;DHT22;12049;51.068;3.688;2022-09-01T14:18:18;28.80;85.40
23738;DHT22;12049;51.068;3.688;2022-09-01T14:20:45;28.70;81.70
23738;DHT22;12049;51.068;3.688;2022-09-01T14:23:12;28.70;84.60
23738;DHT22;12049;51.068;3.688;2022-09-01T14:25:46;28.70;86.10
23738;DHT22;12049;51.068;3.688;2022-09-01T14:28:12;28.80;83.60
23738;DHT22;12049;51.068;3.688;2022-09-01T14:30:38;28.80;84.80
23738;DHT22;12049;51.068;3.688;2022-09-01T14:33:04;28.90;84.70
23738;DHT22;12049;51.068;3.688;2022-09-01T14:35:32;28.90;81.90
23738;DHT22;12049;51.068;3.688;2022-09-01T14:37:58;28.80;80.50
23738;DHT22;12049;51.068;3.688;2022-09-01T14:40:23;28.90;81.10
23738;DHT22;12049;51.068;3.688;2022-09-01T14:42:50;28.70;82.20
23738;DHT22;12049;51.068;3.688;2022-09-01T14:45:17;28.60;83.70
23738;DHT22;12049;51.068;3.688;2022-09-01T14:47:44;28.50;83.40
23738;DHT22;12049;51.068;3.688;2022-09-01T14:50:10;28.30;85.20
23738;DHT22;12049;51.068;3.688;2022-09-01T14:52:36;28.10;82.80
23738;DHT22;12049;51.068;3.688;2022-09-01T14:55:02;28.00;83.10
23738;DHT22;12049;51.068;3.688;2022-09-01T14:57:29;28.00;83.50
23738;DHT22;12049;51.068;3.688;2022-09-01T14:59:54;28.10;83.70
23738;DHT22;12049;51.068;3.688;2022-09-01T15:02:20;28.20;83.70
23738;DHT22;12049;51.068;3.688;2022-09-01T15:04:46;28.30;83.90
23738;DHT22;12049;51.068;3.688;2022-09-01T15:07:11;28.30;83.90
23738;DHT22;12049;51.068;3.688;2022-09-01T15:09:38;28.30;84.20
23738;DHT22;12049;51.068;3.688;2022-09-01T15:12:03;28.40;84.70
23738;DHT22;12049;51.068;3.688;2022-09-01T15:14:30;28.30;82.80
23738;DHT22;12049;51.068;3.688;2022-09-01T15:16:56;28.20;83.80
23738;DHT22;12049;51.068;3.688;2022-09-01T15:19:22;28.30;84.40
23738;DHT22;12049;51.068;3.688;2022-09-01T15:21:47;28.20;84.10
23738;DHT22;12049;51.068;3.688;2022-09-01T15:24:13;28.10;83.90
23738;DHT22;12049;51.068;3.688;2022-09-01T15:26:38;28.10;85.00
23738;DHT22;12049;51.068;3.688;2022-09-01T15:29:05;28.00;84.90
23738;DHT22;12049;51.068;3.688;2022-09-01T15:31:32;28.00;82.70
23738;DHT22;12049;51.068;3.688;2022-09-01T15:33:58;28.00;84.70
23738;DHT22;12049;51.068;3.688;2022-09-01T15:36:24;27.80;84.80
23738;DHT22;12049;51.068;3.688;2022-09-01T15:38:50;27.80;85.90
23738;DHT22;12049;51.068;3.688;2022-09-01T15:41:21;27.80;84.60
23738;DHT22;12049;51.068;3.688;2022-09-01T15:43:46;27.70;83.10
23738;DHT22;12049;51.068;3.688;2022-09-01T15:46:12;27.70;83.70
23738;DHT22;12049;51.068;3.688;2022-09-01T15:48:38;27.80;83.20
23738;DHT22;12049;51.068;3.688;2022-09-01T15:53:49;27.80;83.30
23738;DHT22;12049;51.068;3.688;2022-09-01T15:56:15;27.60;81.60
23738;DHT22;12049;51.068;3.688;2022-09-01T15:58:43;27.60;83.30
23738;DHT22;12049;51.068;3.688;2022-09-01T16:01:08;27.60;84.20
23738;DHT22;12049;51.068;3.688;2022-09-01T16:03:34;27.60;83.10
23738;DHT22;12049;51.068;3.688;2022-09-01T16:05:59;27.60;84.70
23738;DHT22;12049;51.068;3.688;2022-09-01T16:08:26;27.60;83.30
23738;DHT22;12049;51.068;3.688;2022-09-01T16:10:51;27.50;83.90
23738;DHT22;12049;51.068;3.688;2022-09-01T16:13:18;27.50;84.80
23738;DHT22;12049;51.068;3.688;2022-09-01T16:16:19;27.50;84.60
23738;DHT22;12049;51.068;3.688;2022-09-01T16:18:47;27.50;84.90
23738;DHT22;12049;51.068;3.688;2022-09-01T16:24:02;27.50;86.50
23738;DHT22;12049;51.068;3.688;2022-09-01T16:26:28;27.40;84.20
23738;DHT22;12049;51.068;3.688;2022-09-01T16:28:55;27.30;84.40
23738;DHT22;12049;51.068;3.688;2022-09-01T16:31:23;27.20;84.30
23738;DHT22;12049;51.068;3.688;2022-09-01T16:33:50;27.30;83.80